Terminal Aerodrome Forecast
Issued by NWS

Home | Current Version | Previous Version | Text Only | Print | Product List | Glossary On
Versions: 1 2 3 4 5 6 7 8 9 10 11 12 13
000
FTUS44 KLIX 241100
TAFMCB
TAF
KMCB 241134Z 2412/2512 00000KT P6SM BKN100
     FM241500 30003KT P6SM SCT030 SCT050
     FM241900 31005KT P6SM SCT040
     FM250100 VRB02KT P6SM SKC=

USA.gov is the U.S. government's official web portal to all federal, state and local government web resources and services.